createdAt,value
2022-10-03T00:01:37.224Z,0.90
2022-10-03T00:04:23.103Z,0.90
2022-10-03T00:07:01.701Z,0.73
2022-10-03T00:09:40.235Z,0.70
2022-10-03T00:12:16.385Z,0.80
2022-10-03T00:14:49.081Z,0.77
2022-10-03T00:17:22.157Z,0.60
2022-10-03T00:19:55.778Z,0.83
2022-10-03T00:22:28.545Z,0.70
2022-10-03T00:24:58.764Z,0.60
2022-10-03T00:27:37.607Z,1.10
2022-10-03T00:30:20.372Z,0.70
2022-10-03T00:32:47.188Z,0.80
2022-10-03T00:35:20.236Z,0.77
2022-10-03T00:40:57.392Z,0.83
2022-10-03T00:43:37.741Z,1.00
2022-10-03T00:46:07.509Z,0.90
2022-10-03T00:48:39.833Z,1.00
2022-10-03T00:51:06.489Z,1.00
2022-10-03T00:53:51.216Z,0.90
2022-10-03T00:56:21.808Z,1.10
2022-10-03T00:58:51.973Z,0.93
2022-10-03T01:01:22.104Z,0.93
2022-10-03T01:03:55.478Z,0.80
2022-10-03T01:06:43.226Z,0.90
2022-10-03T01:09:12.939Z,0.90
2022-10-03T01:12:01.757Z,0.80
2022-10-03T01:14:28.897Z,1.10
2022-10-03T01:17:14.268Z,1.00
2022-10-03T01:22:44.771Z,1.10
2022-10-03T01:25:11.577Z,0.80
2022-10-03T01:28:01.212Z,0.97
2022-10-03T01:33:13.102Z,0.90
2022-10-03T01:35:43.080Z,1.10
2022-10-03T01:38:09.842Z,1.10
2022-10-03T01:43:42.157Z,1.07
2022-10-03T01:46:11.168Z,0.90
2022-10-03T01:48:40.734Z,0.80
2022-10-03T01:51:13.310Z,1.03
2022-10-03T01:53:40.152Z,1.00
2022-10-03T01:56:06.877Z,1.17
2022-10-03T01:58:39.836Z,1.00
2022-10-03T02:01:14.707Z,1.50
2022-10-03T02:03:47.210Z,1.00
2022-10-03T02:06:18.123Z,1.03
2022-10-03T02:08:48.558Z,1.30
2022-10-03T02:11:35.597Z,1.30
2022-10-03T02:14:22.895Z,1.07
2022-10-03T02:16:58.284Z,1.10
2022-10-03T02:19:34.655Z,1.10
2022-10-03T02:22:01.341Z,1.37
2022-10-03T02:24:37.439Z,1.00
2022-10-03T02:27:04.294Z,0.83
2022-10-03T02:29:31.370Z,1.10
2022-10-03T02:32:16.740Z,1.20
2022-10-03T02:34:53.526Z,1.30
2022-10-03T02:37:52.383Z,1.00
2022-10-03T02:40:19.720Z,1.30
2022-10-03T02:42:59.933Z,1.60
2022-10-03T02:45:36.073Z,1.50
2022-10-03T02:48:31.273Z,1.50
2022-10-03T02:51:10.407Z,1.80
2022-10-03T02:53:37.142Z,2.07
2022-10-03T02:56:10.443Z,2.20
2022-10-03T03:01:27.950Z,2.57
2022-10-03T03:06:54.860Z,2.90
2022-10-03T03:09:30.857Z,2.47
2022-10-03T03:12:13.064Z,2.97
2022-10-03T03:14:39.843Z,2.80
2022-10-03T03:17:07.230Z,3.00
2022-10-03T03:19:34.014Z,3.07
2022-10-03T03:22:11.128Z,3.13
2022-10-03T03:24:40.890Z,2.97
2022-10-03T03:30:06.631Z,3.33
2022-10-03T03:32:39.408Z,4.00
2022-10-03T03:35:06.527Z,3.57
2022-10-03T03:40:18.088Z,3.90
2022-10-03T03:42:49.292Z,4.00
2022-10-03T03:45:19.426Z,4.00
2022-10-03T03:48:05.369Z,4.37
2022-10-03T03:50:52.993Z,3.60
2022-10-03T03:56:23.410Z,4.30
2022-10-03T03:58:51.498Z,4.60
2022-10-03T04:01:20.930Z,4.80
2022-10-03T04:04:06.856Z,4.40
2022-10-03T04:06:52.273Z,4.73
2022-10-03T04:09:24.980Z,4.23
2022-10-03T04:11:51.871Z,4.10
2022-10-03T04:14:37.489Z,4.47
2022-10-03T04:17:33.635Z,3.73
2022-10-03T04:20:09.924Z,3.93
2022-10-03T04:22:55.383Z,4.13
2022-10-03T04:25:34.481Z,4.20
2022-10-03T04:28:10.973Z,4.10
2022-10-03T04:30:46.008Z,3.80
2022-10-03T04:33:25.609Z,4.17
2022-10-03T04:35:58.582Z,3.70
2022-10-03T04:38:39.698Z,3.43
2022-10-03T04:41:27.814Z,3.70
2022-10-03T04:44:13.426Z,3.33
2022-10-03T04:47:02.845Z,3.70
2022-10-03T04:49:32.580Z,5.07
2022-10-03T04:52:03.833Z,4.00
2022-10-03T04:54:48.513Z,3.50
2022-10-03T04:57:24.436Z,3.90
2022-10-03T04:59:58.258Z,4.13
2022-10-03T05:02:31.187Z,4.23
2022-10-03T05:04:57.849Z,4.30
2022-10-03T05:07:53.650Z,4.30
2022-10-03T05:10:26.914Z,4.47
2022-10-03T05:13:08.272Z,4.93
2022-10-03T05:15:40.572Z,5.00
2022-10-03T05:18:27.141Z,5.20
2022-10-03T05:21:06.512Z,5.00
2022-10-03T05:23:37.520Z,4.70
2022-10-03T05:26:40.161Z,5.13
2022-10-03T05:29:04.405Z,4.77
2022-10-03T05:31:34.123Z,5.00
2022-10-03T05:34:19.463Z,4.90
2022-10-03T05:36:49.070Z,4.57
2022-10-03T05:39:35.076Z,5.10
2022-10-03T05:42:22.187Z,4.80
2022-10-03T05:45:03.710Z,4.30
2022-10-03T05:47:45.713Z,4.27
2022-10-03T05:50:18.395Z,4.40
2022-10-03T05:53:18.038Z,4.73
2022-10-03T05:55:46.336Z,4.47
2022-10-03T05:58:26.470Z,4.77
2022-10-03T06:00:57.249Z,4.53
2022-10-03T06:03:49.344Z,4.50
2022-10-03T06:06:27.904Z,4.27
2022-10-03T06:09:13.387Z,4.43
2022-10-03T06:11:42.948Z,4.40
2022-10-03T06:14:24.812Z,3.90
2022-10-03T06:16:57.120Z,4.10
2022-10-03T06:19:36.340Z,4.30
2022-10-03T06:22:21.682Z,3.90
2022-10-03T06:25:03.598Z,4.00
2022-10-03T06:27:49.308Z,4.20
2022-10-03T06:30:34.711Z,3.70
2022-10-03T06:33:01.731Z,3.50
2022-10-03T06:35:32.116Z,3.23
2022-10-03T06:38:08.121Z,3.13
2022-10-03T06:40:54.065Z,2.80
2022-10-03T06:46:08.041Z,2.90
2022-10-03T06:48:54.371Z,3.00
2022-10-03T06:51:30.642Z,2.53
2022-10-03T06:54:16.544Z,2.83
2022-10-03T06:56:50.115Z,2.50
2022-10-03T06:59:33.059Z,2.20
2022-10-03T07:02:18.835Z,2.00
2022-10-03T07:05:04.723Z,2.03
2022-10-03T07:07:40.368Z,2.30
2022-10-03T07:10:16.714Z,2.30
2022-10-03T07:12:51.943Z,2.13
2022-10-03T07:15:50.111Z,1.77
2022-10-03T07:18:22.499Z,1.87
2022-10-03T07:20:55.352Z,1.83
2022-10-03T07:23:28.002Z,2.00
2022-10-03T07:26:11.004Z,2.10
2022-10-03T07:28:38.413Z,1.80
2022-10-03T07:31:08.742Z,1.60
2022-10-03T07:33:54.436Z,2.00
2022-10-03T07:36:59.760Z,1.97
2022-10-03T07:39:42.194Z,2.00
2022-10-03T07:42:09.483Z,2.10
2022-10-03T07:44:50.203Z,1.83
2022-10-03T07:47:35.583Z,2.23
2022-10-03T07:50:05.075Z,2.07
2022-10-03T07:52:41.104Z,2.10
2022-10-03T07:55:21.338Z,1.70
2022-10-03T07:57:51.164Z,1.40
2022-10-03T08:00:30.033Z,1.60
2022-10-03T08:03:09.377Z,1.63
2022-10-03T08:05:48.647Z,1.47
2022-10-03T08:08:15.955Z,1.40
2022-10-03T08:11:03.948Z,1.03
2022-10-03T08:13:37.427Z,1.20
2022-10-03T08:16:15.269Z,1.17
2022-10-03T08:18:49.288Z,1.20
2022-10-03T08:21:36.527Z,1.30
2022-10-03T08:24:09.676Z,1.17
2022-10-03T08:26:52.248Z,1.23
2022-10-03T08:29:19.974Z,1.20
2022-10-03T08:31:49.844Z,1.00
2022-10-03T08:34:26.647Z,1.00
2022-10-03T08:36:56.716Z,1.00
2022-10-03T08:39:26.463Z,1.00
2022-10-03T08:42:04.127Z,1.03
2022-10-03T08:44:49.662Z,0.83
2022-10-03T08:47:21.780Z,1.20
2022-10-03T08:49:54.685Z,1.20
2022-10-03T08:52:25.223Z,1.17
2022-10-03T08:55:10.804Z,1.27
2022-10-03T08:57:58.315Z,1.40
2022-10-03T09:00:45.435Z,1.20
2022-10-03T09:03:43.371Z,1.73
2022-10-03T09:06:27.171Z,1.40
2022-10-03T09:09:00.278Z,1.40
2022-10-03T09:11:33.229Z,1.30
2022-10-03T09:14:15.115Z,1.23
2022-10-03T09:16:45.423Z,1.50
2022-10-03T09:22:02.913Z,1.00
2022-10-03T09:24:48.028Z,1.10
2022-10-03T09:27:15.140Z,1.00
2022-10-03T09:30:00.334Z,1.10
2022-10-03T09:32:30.337Z,1.10
2022-10-03T09:37:59.633Z,1.20
2022-10-03T09:43:35.518Z,1.20
2022-10-03T09:46:05.236Z,0.90
2022-10-03T09:48:44.851Z,1.10
2022-10-03T09:54:11.246Z,1.30
2022-10-03T09:56:44.447Z,1.50
2022-10-03T09:59:14.347Z,1.30
2022-10-03T10:01:48.987Z,1.20
2022-10-03T10:04:54.401Z,1.70
2022-10-03T10:07:41.148Z,18.90
2022-10-03T10:10:18.679Z,1.87
2022-10-03T10:13:11.909Z,1.60
2022-10-03T10:15:38.685Z,1.60
2022-10-03T10:18:24.140Z,1.80
2022-10-03T10:21:20.429Z,1.43
2022-10-03T10:23:48.549Z,2.00
2022-10-03T10:26:33.685Z,1.90
2022-10-03T10:32:20.451Z,2.00
2022-10-03T10:35:03.496Z,2.00
2022-10-03T10:37:48.723Z,1.80
2022-10-03T10:40:36.223Z,2.37
2022-10-03T10:43:27.576Z,2.07
2022-10-03T10:46:00.502Z,1.73
2022-10-03T10:48:46.200Z,1.20
2022-10-03T10:51:12.906Z,1.40
2022-10-03T10:53:46.243Z,1.33
2022-10-03T10:56:27.404Z,1.30
2022-10-03T10:59:13.365Z,1.70
2022-10-03T11:01:59.127Z,1.60
2022-10-03T11:04:35.056Z,1.57
2022-10-03T11:07:14.544Z,1.57
2022-10-03T11:09:50.216Z,1.50
2022-10-03T11:12:27.315Z,2.90
2022-10-03T11:15:12.765Z,2.20
2022-10-03T11:17:48.414Z,1.77
2022-10-03T11:20:15.162Z,1.63
2022-10-03T11:23:04.591Z,1.40
2022-10-03T11:25:51.325Z,3.07
2022-10-03T11:28:19.311Z,1.40
2022-10-03T11:30:59.047Z,1.47
2022-10-03T11:33:25.743Z,1.33
2022-10-03T11:36:11.348Z,1.70
2022-10-03T11:38:48.550Z,1.50
2022-10-03T11:41:18.367Z,1.40
2022-10-03T11:43:50.795Z,1.87
2022-10-03T11:46:20.704Z,1.97
2022-10-03T11:48:59.653Z,1.40
2022-10-03T11:51:51.523Z,1.50
2022-10-03T11:54:32.534Z,1.37
2022-10-03T11:57:09.432Z,1.40
2022-10-03T11:59:40.016Z,1.30
2022-10-03T12:02:28.668Z,1.20
2022-10-03T12:05:04.094Z,1.00
2022-10-03T12:08:03.276Z,1.20
2022-10-03T12:10:30.676Z,1.43
2022-10-03T12:12:57.370Z,1.20
2022-10-03T12:15:34.988Z,1.17
2022-10-03T12:18:07.556Z,1.10
2022-10-03T12:20:34.321Z,0.90
2022-10-03T12:23:07.898Z,1.00
2022-10-03T12:25:37.005Z,1.00
2022-10-03T12:28:07.767Z,1.00
2022-10-03T12:30:42.956Z,0.97
2022-10-03T12:33:12.829Z,1.10
2022-10-03T12:35:44.856Z,1.00
2022-10-03T12:38:15.174Z,1.10
2022-10-03T12:40:43.933Z,1.10
2022-10-03T12:43:26.560Z,1.33
2022-10-03T12:45:55.773Z,1.50
2022-10-03T12:48:35.175Z,1.40
2022-10-03T12:51:05.029Z,1.50
2022-10-03T12:53:33.405Z,1.50
2022-10-03T12:56:08.269Z,1.40
2022-10-03T12:58:58.808Z,2.00
2022-10-03T13:01:39.236Z,1.83
2022-10-03T13:04:25.667Z,2.43
2022-10-03T13:07:03.459Z,2.40
2022-10-03T13:12:40.341Z,2.23
2022-10-03T13:15:17.826Z,2.20
2022-10-03T13:17:47.890Z,2.10
2022-10-03T13:20:17.710Z,2.00
2022-10-03T13:22:44.362Z,2.10
2022-10-03T13:25:22.051Z,1.80
2022-10-03T13:27:51.951Z,1.90
2022-10-03T13:30:20.587Z,1.90
2022-10-03T13:32:50.558Z,1.50
2022-10-03T13:36:11.709Z,1.60
2022-10-03T13:41:25.389Z,2.00
2022-10-03T13:44:12.461Z,2.07
2022-10-03T13:46:45.271Z,2.27
2022-10-03T13:49:18.544Z,2.50
2022-10-03T13:52:05.272Z,2.57
2022-10-03T13:54:39.575Z,2.70
2022-10-03T13:57:10.425Z,2.80
2022-10-03T14:02:42.774Z,2.53
2022-10-03T14:05:28.476Z,2.60
2022-10-03T14:08:04.503Z,2.60
2022-10-03T14:10:43.433Z,4.83
2022-10-03T14:13:46.058Z,4.00
2022-10-03T14:16:21.684Z,2.43
2022-10-03T14:18:51.690Z,2.80
2022-10-03T14:24:05.640Z,2.53
2022-10-03T14:26:38.177Z,3.10
2022-10-03T14:29:04.939Z,3.23
2022-10-03T14:31:35.412Z,3.00
2022-10-03T14:36:56.209Z,3.10
2022-10-03T14:42:28.710Z,3.63
2022-10-03T14:48:12.896Z,3.73
2022-10-03T14:53:25.190Z,3.70
2022-10-03T14:55:51.870Z,4.07
2022-10-03T14:58:22.399Z,4.27
2022-10-03T15:00:55.454Z,4.03
2022-10-03T15:03:28.887Z,3.97
2022-10-03T15:06:11.318Z,4.87
2022-10-03T15:08:39.548Z,4.23
2022-10-03T15:11:07.091Z,4.57
2022-10-03T15:13:35.306Z,4.90
2022-10-03T15:16:02.059Z,4.90
2022-10-03T15:18:29.023Z,5.10
2022-10-03T15:20:55.857Z,4.67
2022-10-03T15:23:22.638Z,5.33
2022-10-03T15:25:54.225Z,5.20
2022-10-03T15:28:21.790Z,5.20
2022-10-03T15:30:48.680Z,4.90
2022-10-03T15:33:24.139Z,5.50
2022-10-03T15:35:54.674Z,5.43
2022-10-03T15:38:25.126Z,6.00
2022-10-03T15:44:04.183Z,8.43
2022-10-03T15:46:32.107Z,6.80
2022-10-03T15:48:59.474Z,7.17
2022-10-03T15:51:26.541Z,7.10
2022-10-03T15:53:53.747Z,7.97
2022-10-03T15:56:29.967Z,7.70
2022-10-03T15:58:59.970Z,6.83
2022-10-03T16:01:32.508Z,7.43
2022-10-03T16:06:50.239Z,7.47
2022-10-03T16:09:27.721Z,7.70
2022-10-03T16:12:14.735Z,8.37
2022-10-03T16:14:42.505Z,8.50
2022-10-03T16:17:16.055Z,13.53
2022-10-03T16:19:44.849Z,10.53
2022-10-03T16:22:17.625Z,10.37
2022-10-03T16:24:53.679Z,17.83
2022-10-03T16:27:21.408Z,12.50
2022-10-03T16:29:53.317Z,15.43
2022-10-03T16:32:24.613Z,12.63
2022-10-03T16:34:51.579Z,17.17
2022-10-03T16:37:19.681Z,7.87
2022-10-03T16:39:55.630Z,9.57
2022-10-03T16:42:25.775Z,13.27
2022-10-03T16:44:55.990Z,13.87
2022-10-03T16:50:28.122Z,20.17
2022-10-03T16:52:56.270Z,7.87
2022-10-03T16:55:25.909Z,6.97
2022-10-03T16:57:52.811Z,9.93
2022-10-03T17:00:25.798Z,8.57
2022-10-03T17:02:52.904Z,8.60
2022-10-03T17:05:22.690Z,7.57
2022-10-03T17:07:54.079Z,8.50
2022-10-03T17:10:41.362Z,8.90
2022-10-03T17:13:12.228Z,8.17
2022-10-03T17:15:44.538Z,7.53
2022-10-03T17:18:30.240Z,7.13
2022-10-03T17:21:02.741Z,7.77
2022-10-03T17:23:29.621Z,8.20
2022-10-03T17:26:02.551Z,14.03
2022-10-03T17:28:32.482Z,14.80
2022-10-03T17:31:00.906Z,7.87
2022-10-03T17:33:36.915Z,6.93
2022-10-03T17:36:19.012Z,9.00
2022-10-03T17:39:04.637Z,6.43
2022-10-03T17:41:33.667Z,12.90
2022-10-03T17:44:19.265Z,7.23
2022-10-03T17:46:59.001Z,5.93
2022-10-03T17:49:31.824Z,6.47
2022-10-03T17:51:58.764Z,5.07
2022-10-03T17:54:33.324Z,7.50
2022-10-03T17:57:20.394Z,9.63
2022-10-03T17:59:59.653Z,6.37
2022-10-03T18:02:32.523Z,7.00
2022-10-03T18:05:04.899Z,8.83
2022-10-03T18:07:32.006Z,9.37
2022-10-03T18:09:58.816Z,6.20
2022-10-03T18:12:28.479Z,5.27
2022-10-03T18:14:56.022Z,7.20
2022-10-03T18:17:26.590Z,12.93
2022-10-03T18:19:56.385Z,11.93
2022-10-03T18:22:40.527Z,7.23
2022-10-03T18:25:34.813Z,4.17
2022-10-03T18:28:08.568Z,26.20
2022-10-03T18:30:46.511Z,14.77
2022-10-03T18:33:14.701Z,5.67
2022-10-03T18:35:42.445Z,6.53
2022-10-03T18:38:13.458Z,3.93
2022-10-03T18:40:42.612Z,4.30
2022-10-03T18:43:21.064Z,20.80
2022-10-03T18:45:49.204Z,7.33
2022-10-03T18:48:29.724Z,6.97
2022-10-03T18:50:58.456Z,7.80
2022-10-03T18:53:39.290Z,8.37
2022-10-03T18:56:07.948Z,7.07
2022-10-03T18:58:36.437Z,8.67
2022-10-03T19:01:25.276Z,6.30
2022-10-03T19:03:55.834Z,8.63
2022-10-03T19:06:29.660Z,5.80
2022-10-03T19:08:57.226Z,4.80
2022-10-03T19:11:37.361Z,5.40
2022-10-03T19:14:15.266Z,4.50
2022-10-03T19:17:01.197Z,10.47
2022-10-03T19:19:28.037Z,6.40
2022-10-03T19:21:55.320Z,4.10
2022-10-03T19:24:56.684Z,11.93
2022-10-03T19:27:21.822Z,5.87
2022-10-03T19:29:52.306Z,6.73
2022-10-03T19:32:45.377Z,4.60
2022-10-03T19:35:13.063Z,17.30
2022-10-03T19:37:45.142Z,4.87
2022-10-03T19:43:11.176Z,4.67
2022-10-03T19:45:38.124Z,3.60
2022-10-03T19:48:06.203Z,8.30
2022-10-03T19:50:33.726Z,11.03
2022-10-03T19:53:00.537Z,6.80
2022-10-03T19:55:30.821Z,8.23
2022-10-03T19:58:05.566Z,16.30
2022-10-03T20:00:39.725Z,3.27
2022-10-03T20:03:16.899Z,11.10
2022-10-03T20:06:02.476Z,5.57
2022-10-03T20:11:41.977Z,7.30
2022-10-03T20:14:36.316Z,5.40
2022-10-03T20:17:05.205Z,3.90
2022-10-03T20:22:29.650Z,2.10
2022-10-03T20:24:59.599Z,3.07
2022-10-03T20:28:01.857Z,2.70
2022-10-03T20:30:31.803Z,2.77
2022-10-03T20:32:58.660Z,3.00
2022-10-03T20:35:48.087Z,2.30
2022-10-03T20:38:14.812Z,2.23
2022-10-03T20:40:45.525Z,2.40
2022-10-03T20:43:31.572Z,2.63
2022-10-03T20:46:02.745Z,2.13
2022-10-03T20:48:31.283Z,3.30
2022-10-03T20:50:58.002Z,2.93
2022-10-03T20:53:25.758Z,3.40
2022-10-03T20:58:48.000Z,2.93
2022-10-03T21:01:18.411Z,1.90
2022-10-03T21:04:03.987Z,2.40
2022-10-03T21:06:32.044Z,1.93
2022-10-03T21:08:58.733Z,2.10
2022-10-03T21:11:26.520Z,2.00
2022-10-03T21:14:25.875Z,2.43
2022-10-03T21:16:52.620Z,2.23
2022-10-03T21:19:45.500Z,2.37
2022-10-03T21:22:12.531Z,2.40
2022-10-03T21:25:02.601Z,2.87
2022-10-03T21:27:29.424Z,2.53
2022-10-03T21:29:57.042Z,2.50
2022-10-03T21:32:38.838Z,2.87
2022-10-03T21:35:21.726Z,2.90
2022-10-03T21:37:57.440Z,3.10
2022-10-03T21:40:33.325Z,3.17
2022-10-03T21:43:03.110Z,3.40
2022-10-03T21:45:44.527Z,3.47
2022-10-03T21:48:11.428Z,3.50
2022-10-03T21:50:53.768Z,2.93
2022-10-03T21:53:39.382Z,3.60
2022-10-03T21:56:44.525Z,4.07
2022-10-03T21:59:28.194Z,2.77
2022-10-03T22:02:06.360Z,3.10
2022-10-03T22:04:38.587Z,2.53
2022-10-03T22:07:15.364Z,3.20
2022-10-03T22:09:51.506Z,2.70
2022-10-03T22:12:18.222Z,2.90
2022-10-03T22:14:44.856Z,2.93
2022-10-03T22:17:17.909Z,3.47
2022-10-03T22:19:50.120Z,2.67
2022-10-03T22:25:22.051Z,2.63
2022-10-03T22:27:51.939Z,3.40
2022-10-03T22:30:19.479Z,1.80
2022-10-03T22:32:59.440Z,2.83
2022-10-03T22:35:38.126Z,3.30
2022-10-03T22:38:04.822Z,4.73
2022-10-03T22:40:31.557Z,3.97
2022-10-03T22:42:58.737Z,2.47
2022-10-03T22:48:11.477Z,1.77
2022-10-03T22:50:41.611Z,1.60
2022-10-03T22:53:11.558Z,1.70
2022-10-03T22:55:38.177Z,1.70
2022-10-03T22:58:05.659Z,1.70
2022-10-03T23:00:35.702Z,1.67
2022-10-03T23:03:05.167Z,1.97
2022-10-03T23:05:34.895Z,1.40
2022-10-03T23:08:23.733Z,1.33
2022-10-03T23:10:52.850Z,1.30
2022-10-03T23:13:21.774Z,1.50
2022-10-03T23:15:49.836Z,1.50
2022-10-03T23:18:25.836Z,1.50
2022-10-03T23:20:55.527Z,1.60
2022-10-03T23:23:24.641Z,1.67
2022-10-03T23:26:11.545Z,1.53
2022-10-03T23:28:40.983Z,1.50
2022-10-03T23:31:07.682Z,1.47
2022-10-03T23:33:34.452Z,1.50
2022-10-03T23:36:04.952Z,1.70
2022-10-03T23:38:31.610Z,1.57
2022-10-03T23:40:58.529Z,1.80
2022-10-03T23:43:28.468Z,2.17
2022-10-03T23:46:02.768Z,1.70
2022-10-03T23:48:29.622Z,1.60
2022-10-03T23:51:00.488Z,1.50
2022-10-03T23:53:27.562Z,1.57
2022-10-03T23:55:54.179Z,2.03
2022-10-03T23:58:22.976Z,1.80
